Flag for USA

Past Weather in Louisville Lakes State Recreation Area, Nebraska, USA — Yesterday and Last 2 Weeks

Currently: 60 °F. Overcast. (Weather station: Millard Airport, USA). See more current weather

Past Weather in Louisville Lakes State Recreation Area — Graph

°F

Louisville Lakes State Recreation Area Temperature Yesterday

Maximum temperature yesterday: 91 °F (at 4:55 pm)
Minimum temperature yesterday: 61 °F (at 11:55 pm)
Average temperature yesterday: 76 °F

High & Low Weather Summary for the Past Weeks

 TemperatureHumidityPressure
High94 °F (May 12, 3:55 pm)99% (May 15, 1:15 am)30.09 "Hg (May 15, 1:15 am)
Low48 °F (May 16, 6:15 am)20% (May 9, 2:35 pm)29.27 "Hg (May 19, 7:55 pm)
Average69 °F64%29.83 "Hg
* Reported May 5 1:35 am — May 20 1:35 am, Louisville Lakes State Recreation Area. Weather by CustomWeather, © 2022

Note: Actual official high and low records may vary slightly from our data, if they occured in-between our weather recording intervals... More about our weather records

Louisville Lakes State Recreation Area Weather History for the Previous 24 Hours

Scroll right to see more
 ConditionsComfort  
Time TempWeatherWind HumidityBarometerVisibility
1:35 am
Fri, May 20
60 °FMostly cloudy.10 mph56%29.44 "Hg10 mi
12:55 am60 °FMostly cloudy.12 mph57%29.44 "Hg10 mi
12:15 am60 °FPassing clouds.15 mph61%29.44 "Hg10 mi
11:55 pm
Thu, May 19
61 °FClear.18 mph63%29.42 "Hg10 mi
11:35 pm63 °FPassing clouds.15 mph62%29.40 "Hg10 mi
11:15 pm66 °FPartly cloudy.13 mph64%29.40 "Hg10 mi
10:55 pm69 °FPassing clouds.18 mph62%29.37 "Hg10 mi
10:35 pm79 °FClear.10 mph63%29.32 "Hg10 mi
9:55 pm80 °FClear.12 mph59%29.28 "Hg10 mi
9:35 pm81 °FClear.10 mph58%29.28 "Hg10 mi
9:15 pm82 °FClear.10 mph56%29.27 "Hg10 mi
8:35 pm83 °FSunny.13 mph55%29.27 "Hg10 mi
8:15 pm84 °FSunny.12 mph54%29.27 "Hg10 mi
7:55 pm84 °FSunny.12 mph54%29.27 "Hg10 mi
6:55 pm89 °FSunny.12 mph38%29.28 "Hg10 mi
6:35 pm89 °FSunny.8 mph35%29.28 "Hg10 mi
6:15 pm90 °FSunny.9 mph33%29.29 "Hg10 mi
5:55 pm90 °FSunny.10 mph31%29.29 "Hg10 mi
5:35 pm90 °FSunny.10 mph30%29.30 "Hg10 mi
4:55 pm91 °FSunny.14 mph29%29.31 "Hg10 mi
4:35 pm90 °FSunny.12 mph30%29.32 "Hg10 mi
4:15 pm90 °FSunny.12 mph31%29.34 "Hg10 mi
3:55 pm90 °FSunny.15 mph35%29.34 "Hg10 mi
3:35 pm90 °FScattered clouds.14 mph35%29.35 "Hg10 mi
2:55 pm90 °FScattered clouds.10 mph36%29.37 "Hg10 mi
2:35 pm90 °FScattered clouds.15 mph35%29.38 "Hg10 mi
1:55 pm89 °FSunny.14 mph41%29.40 "Hg10 mi
1:35 pm88 °FSunny.16 mph40%29.41 "Hg10 mi
12:55 pm86 °FSunny.14 mph49%29.43 "Hg10 mi
12:35 pm85 °FSunny.13 mph55%29.45 "Hg10 mi
12:15 pm83 °FScattered clouds.15 mph60%29.47 "Hg10 mi
11:55 am82 °FSunny.14 mph62%29.48 "Hg10 mi
11:35 am81 °FSunny.15 mph62%29.49 "Hg10 mi
11:15 am81 °FSunny.15 mph60%29.50 "Hg10 mi
10:55 am80 °FSunny.15 mph60%29.52 "Hg10 mi
10:35 am80 °FSunny.9 mph62%29.53 "Hg10 mi
10:15 am79 °FSunny.14 mph63%29.53 "Hg10 mi
9:35 am77 °FSunny.9 mph67%29.56 "Hg10 mi
9:15 am75 °FSunny.9 mph69%29.57 "Hg10 mi
8:55 am74 °FSunny.7 mph74%29.58 "Hg10 mi
8:35 am72 °FSunny.6 mph75%29.58 "Hg7 mi
7:35 am68 °FScattered clouds.3 mph82%29.62 "Hg10 mi
6:55 am67 °FPartly sunny.5 mph84%29.64 "Hg10 mi
6:35 am67 °FOvercast.6 mph83%29.63 "Hg10 mi
6:15 am66 °FOvercast.No wind82%29.64 "Hg10 mi
5:55 am64 °FPassing clouds.No wind84%29.64 "Hg10 mi
5:35 am65 °FOvercast.No wind80%29.65 "Hg10 mi
5:15 am64 °FPassing clouds.3 mph81%29.66 "Hg10 mi
4:55 am62 °FClear.5 mph82%29.65 "Hg10 mi
4:35 am63 °FClear.5 mph77%29.66 "Hg10 mi
4:15 am63 °FClear.5 mph76%29.66 "Hg10 mi
3:55 am64 °FClear.3 mph73%29.66 "Hg10 mi
3:35 am62 °FPassing clouds.No wind79%29.67 "Hg10 mi
3:15 am63 °FPassing clouds.No wind77%29.68 "Hg10 mi
2:55 am64 °FPassing clouds.No wind72%29.69 "Hg10 mi
2:35 am65 °FPassing clouds.No wind68%29.71 "Hg10 mi
2:15 am64 °FOvercast.No wind70%29.71 "Hg10 mi
Weather by CustomWeather, © 2022

See weather overview